createdAt,value
2019-04-11T00:00:41.670Z,68.97
2019-04-11T00:03:11.351Z,69.40
2019-04-11T00:05:41.174Z,68.63
2019-04-11T00:08:10.145Z,69.43
2019-04-11T00:10:39.577Z,68.83
2019-04-11T00:13:17.304Z,69.00
2019-04-11T00:15:38.921Z,69.77
2019-04-11T00:18:08.274Z,71.18
2019-04-11T00:20:37.022Z,70.13
2019-04-11T00:23:06.095Z,69.72
2019-04-11T00:25:35.808Z,69.71
2019-04-11T00:28:05.629Z,70.27
2019-04-11T00:30:34.515Z,70.70
2019-04-11T00:33:03.013Z,71.37
2019-04-11T00:35:31.591Z,72.09
2019-04-11T00:38:01.314Z,71.67
2019-04-11T00:40:30.066Z,71.33
2019-04-11T00:42:58.979Z,71.71
2019-04-11T00:45:27.680Z,71.74
2019-04-11T00:47:57.456Z,72.45
2019-04-11T00:50:27.388Z,72.60
2019-04-11T00:52:56.487Z,72.31
2019-04-11T00:55:25.203Z,72.68
2019-04-11T00:57:54.858Z,73.53
2019-04-11T01:00:24.103Z,73.32
2019-04-11T01:02:53.630Z,73.74
2019-04-11T01:05:23.471Z,75.09
2019-04-11T01:07:53.197Z,75.10
2019-04-11T01:10:22.354Z,74.99
2019-04-11T01:12:51.292Z,75.36
2019-04-11T01:15:21.673Z,75.58
2019-04-11T01:17:50.240Z,76.18
2019-04-11T01:20:19.530Z,76.76
2019-04-11T01:22:48.719Z,76.17
2019-04-11T01:25:17.574Z,75.92
2019-04-11T01:27:50.029Z,75.41
2019-04-11T01:30:20.754Z,76.07
2019-04-11T01:32:49.380Z,75.70
2019-04-11T01:35:17.983Z,76.41
2019-04-11T01:37:48.211Z,76.74
2019-04-11T01:40:19.734Z,76.08
2019-04-11T01:42:49.236Z,77.15
2019-04-11T01:45:19.719Z,77.39
2019-04-11T01:47:55.763Z,76.95
2019-04-11T01:50:27.105Z,77.27
2019-04-11T01:52:55.907Z,77.80
2019-04-11T01:55:24.834Z,77.93
2019-04-11T01:57:54.064Z,77.92
2019-04-11T02:00:24.525Z,77.65
2019-04-11T02:02:57.653Z,77.81
2019-04-11T02:05:27.892Z,77.88
2019-04-11T02:07:56.603Z,78.82
2019-04-11T02:10:26.562Z,78.50
2019-04-11T02:12:55.356Z,78.48
2019-04-11T02:15:25.363Z,78.30
2019-04-11T02:17:54.986Z,78.93
2019-04-11T02:20:25.004Z,79.04
2019-04-11T02:22:55.248Z,79.58
2019-04-11T02:25:42.842Z,79.34
2019-04-11T02:28:13.151Z,79.66
2019-04-11T02:30:45.731Z,79.95
2019-04-11T02:33:15.819Z,80.00
2019-04-11T02:35:48.881Z,80.17
2019-04-11T02:38:21.389Z,80.55
2019-04-11T02:40:50.232Z,80.79
2019-04-11T02:43:20.432Z,81.29
2019-04-11T02:45:58.783Z,81.07
2019-04-11T02:48:20.648Z,81.41
2019-04-11T02:50:50.875Z,81.53
2019-04-11T02:53:21.243Z,81.77
2019-04-11T02:55:52.090Z,81.54
2019-04-11T02:58:22.863Z,81.70
2019-04-11T03:00:53.713Z,82.19
2019-04-11T03:03:23.269Z,82.49
2019-04-11T03:05:53.284Z,82.92
2019-04-11T03:08:24.042Z,82.85
2019-04-11T03:10:53.580Z,82.75
2019-04-11T03:13:23.327Z,82.86
2019-04-11T03:16:07.322Z,83.06
2019-04-11T03:18:40.334Z,83.08
2019-04-11T03:20:57.703Z,83.23
2019-04-11T03:23:25.198Z,83.10
2019-04-11T03:25:56.512Z,83.57
2019-04-11T03:28:28.334Z,84.05
2019-04-11T03:31:26.653Z,83.96
2019-04-11T03:34:16.441Z,83.92
2019-04-11T03:36:50.256Z,84.02
2019-04-11T03:38:46.790Z,84.15
2019-04-11T03:41:16.116Z,84.03
2019-04-11T03:43:40.917Z,84.22
2019-04-11T03:46:22.917Z,84.04
2019-04-11T03:48:43.708Z,84.10
2019-04-11T03:51:01.841Z,83.76
2019-04-11T03:53:32.547Z,83.64
2019-04-11T03:56:03.718Z,84.04
2019-04-11T03:58:33.173Z,84.01
2019-04-11T04:01:05.553Z,84.15
2019-04-11T04:03:34.242Z,84.43
2019-04-11T04:06:04.489Z,84.52
2019-04-11T04:08:34.230Z,84.50
2019-04-11T04:11:12.400Z,84.96
2019-04-11T04:13:53.786Z,85.13
2019-04-11T04:16:45.264Z,85.36
2019-04-11T04:19:28.569Z,85.24
2019-04-11T04:21:59.427Z,85.61
2019-04-11T04:24:34.199Z,85.41
2019-04-11T04:27:01.910Z,85.59
2019-04-11T04:29:32.446Z,85.98
2019-04-11T04:32:02.854Z,86.22
2019-04-11T04:34:31.805Z,86.27
2019-04-11T04:37:03.563Z,86.06
2019-04-11T04:39:34.311Z,85.48
2019-04-11T04:42:10.615Z,85.14
2019-04-11T04:44:33.529Z,85.19
2019-04-11T04:47:15.325Z,85.25
2019-04-11T04:49:34.301Z,85.09
2019-04-11T04:52:04.007Z,84.60
2019-04-11T04:54:34.741Z,84.34
2019-04-11T04:57:04.972Z,84.19
2019-04-11T04:59:34.124Z,84.11
2019-04-11T05:02:04.026Z,84.34
2019-04-11T05:04:33.744Z,84.95
2019-04-11T05:07:03.211Z,85.03
2019-04-11T05:09:32.138Z,85.25
2019-04-11T05:12:01.401Z,85.01
2019-04-11T05:14:31.683Z,85.32
2019-04-11T05:17:00.666Z,85.15
2019-04-11T05:19:29.996Z,85.34
2019-04-11T05:21:59.779Z,85.38
2019-04-11T05:24:28.429Z,85.73
2019-04-11T05:26:57.861Z,85.38
2019-04-11T05:29:27.167Z,85.23
2019-04-11T05:31:56.721Z,85.06
2019-04-11T05:34:25.861Z,85.14
2019-04-11T05:36:55.468Z,84.78
2019-04-11T05:39:24.096Z,84.74
2019-04-11T05:41:52.694Z,84.56
2019-04-11T05:44:21.241Z,84.61
2019-04-11T05:46:56.249Z,84.32
2019-04-11T05:49:41.688Z,84.21
2019-04-11T05:52:10.360Z,83.98
2019-04-11T05:54:47.459Z,84.13
2019-04-11T05:57:20.831Z,83.90
2019-04-11T05:59:51.991Z,83.60
2019-04-11T06:02:19.109Z,83.41
2019-04-11T06:04:56.215Z,83.24
2019-04-11T06:07:41.015Z,82.97
2019-04-11T06:10:11.382Z,81.78
2019-04-11T06:12:57.262Z,81.29
2019-04-11T06:15:27.616Z,81.17
2019-04-11T06:17:56.611Z,81.29
2019-04-11T06:20:33.430Z,80.33
2019-04-11T06:23:21.284Z,80.62
2019-04-11T06:25:58.782Z,79.99
2019-04-11T06:28:30.635Z,78.95
2019-04-11T06:31:13.742Z,79.33
2019-04-11T06:33:44.895Z,79.01
2019-04-11T06:36:28.128Z,77.87
2019-04-11T06:38:58.751Z,77.83
2019-04-11T06:41:37.495Z,77.86
2019-04-11T06:44:16.572Z,76.26
2019-04-11T06:47:05.363Z,76.94
2019-04-11T06:49:36.303Z,75.87
2019-04-11T06:52:07.074Z,75.53
2019-04-11T06:54:56.110Z,75.60
2019-04-11T06:57:30.017Z,74.18
2019-04-11T07:00:00.890Z,73.86
2019-04-11T07:02:32.206Z,74.36
2019-04-11T07:05:04.962Z,73.97
2019-04-11T07:07:34.688Z,73.71
2019-04-11T07:10:06.280Z,72.88
2019-04-11T07:12:42.831Z,73.31
2019-04-11T07:15:15.640Z,71.79
2019-04-11T07:18:04.680Z,72.17
2019-04-11T07:20:43.606Z,71.80
2019-04-11T07:23:30.646Z,71.10
2019-04-11T07:26:13.461Z,71.59
2019-04-11T07:28:47.910Z,71.33
2019-04-11T07:31:21.639Z,69.96
2019-04-11T07:33:52.471Z,70.09
2019-04-11T07:36:40.494Z,69.25
2019-04-11T07:39:12.715Z,69.02
2019-04-11T07:41:45.839Z,68.03
2019-04-11T07:44:21.815Z,69.43
2019-04-11T07:46:52.008Z,67.09
2019-04-11T07:49:26.472Z,66.56
2019-04-11T07:51:58.154Z,67.96
2019-04-11T07:54:28.124Z,65.41
2019-04-11T07:57:17.395Z,65.41
2019-04-11T08:00:03.779Z,64.47
2019-04-11T08:02:53.221Z,63.10
2019-04-11T08:05:41.348Z,62.02
2019-04-11T08:08:11.674Z,62.12
2019-04-11T08:10:48.473Z,57.45
2019-04-11T08:13:22.643Z,57.36
2019-04-11T08:15:53.752Z,57.54
2019-04-11T08:18:24.393Z,57.54
2019-04-11T08:20:57.816Z,55.35
2019-04-11T08:23:27.701Z,55.35
2019-04-11T08:25:58.004Z,55.34
2019-04-11T08:28:26.978Z,53.09
2019-04-11T08:31:03.489Z,52.58
2019-04-11T08:33:32.994Z,52.58
2019-04-11T08:36:09.388Z,50.81
2019-04-11T08:38:37.990Z,50.52
2019-04-11T08:41:11.437Z,50.87
2019-04-11T08:43:40.072Z,48.31
2019-04-11T08:46:11.330Z,48.32
2019-04-11T08:48:46.721Z,46.04
2019-04-11T08:51:19.351Z,47.67
2019-04-11T08:53:49.532Z,47.39
2019-04-11T08:56:23.059Z,48.88
2019-04-11T08:59:33.592Z,48.08
2019-04-11T09:02:02.786Z,50.76
2019-04-11T09:04:36.535Z,48.27
2019-04-11T09:07:05.754Z,48.27
2019-04-11T09:09:52.127Z,47.36
2019-04-11T09:12:20.701Z,47.36
2019-04-11T09:14:54.777Z,48.92
2019-04-11T09:17:26.171Z,46.01
2019-04-11T09:19:57.023Z,46.82
2019-04-11T09:25:43.520Z,47.43
2019-04-11T09:28:13.864Z,47.34
2019-04-11T09:30:50.171Z,43.19
2019-04-11T09:33:42.034Z,43.19
2019-04-11T09:36:32.305Z,42.59
2019-04-11T09:39:19.283Z,42.59
2019-04-11T09:42:13.872Z,42.95
2019-04-11T09:44:49.915Z,41.45
2019-04-11T09:47:45.612Z,40.95
2019-04-11T09:50:18.672Z,40.16
2019-04-11T09:52:49.570Z,40.66
2019-04-11T09:55:25.562Z,42.19
2019-04-11T09:57:59.635Z,41.34
2019-04-11T10:00:32.614Z,43.27
2019-04-11T10:03:02.972Z,43.14
2019-04-11T10:05:36.462Z,43.07
2019-04-11T10:08:22.456Z,44.70
2019-04-11T10:11:08.050Z,44.27
2019-04-11T10:13:45.338Z,44.99
2019-04-11T10:16:28.400Z,45.57
2019-04-11T10:19:01.623Z,45.02
2019-04-11T10:21:33.388Z,43.69
2019-04-11T10:24:03.573Z,43.96
2019-04-11T10:26:36.219Z,44.02
2019-04-11T10:29:23.631Z,44.63
2019-04-11T10:32:19.145Z,43.60
2019-04-11T10:37:47.720Z,43.84
2019-04-11T10:40:20.736Z,44.19
2019-04-11T10:42:52.072Z,42.65
2019-04-11T10:48:34.606Z,41.21
2019-04-11T10:51:12.862Z,39.04
2019-04-11T10:53:51.233Z,38.88
2019-04-11T10:56:26.475Z,39.46
2019-04-11T10:58:57.408Z,38.55
2019-04-11T11:01:36.419Z,39.08
2019-04-11T11:04:13.759Z,39.84
2019-04-11T11:06:46.478Z,40.48
2019-04-11T11:09:48.329Z,40.19
2019-04-11T11:12:29.648Z,40.05
2019-04-11T11:15:00.944Z,40.20
2019-04-11T11:18:01.480Z,40.11
2019-04-11T11:20:36.344Z,39.68
2019-04-11T11:23:06.868Z,39.16
2019-04-11T11:25:50.037Z,40.89
2019-04-11T11:28:20.050Z,39.93
2019-04-11T11:31:07.424Z,40.08
2019-04-11T11:33:36.828Z,39.49
2019-04-11T11:38:54.849Z,40.92
2019-04-11T11:41:41.173Z,39.92
2019-04-11T11:44:11.689Z,39.19
2019-04-11T11:52:50.998Z,40.34
2019-04-11T11:55:21.935Z,39.26
2019-04-11T11:57:53.114Z,39.26
2019-04-11T12:00:23.693Z,38.68
2019-04-11T12:02:56.944Z,38.48
2019-04-11T12:05:27.326Z,39.55
2019-04-11T12:08:00.405Z,39.38
2019-04-11T12:10:49.299Z,40.30
2019-04-11T12:13:19.646Z,40.45
2019-04-11T12:15:55.935Z,40.60
2019-04-11T12:18:26.769Z,41.05
2019-04-11T12:21:03.327Z,39.80
2019-04-11T12:23:53.964Z,38.62
2019-04-11T12:26:14.222Z,39.53
2019-04-11T12:28:54.282Z,38.84
2019-04-11T12:31:25.994Z,40.46
2019-04-11T12:34:12.833Z,40.32
2019-04-11T12:36:50.849Z,40.56
2019-04-11T12:39:35.620Z,41.17
2019-04-11T12:42:11.588Z,41.92
2019-04-11T12:44:59.316Z,40.94
2019-04-11T12:47:28.637Z,42.34
2019-04-11T12:50:04.352Z,42.44
2019-04-11T12:58:58.447Z,42.48
2019-04-11T13:01:28.974Z,42.21
2019-04-11T13:04:07.743Z,44.54
2019-04-11T13:06:50.086Z,43.97
2019-04-11T13:09:36.612Z,43.44
2019-04-11T13:12:09.972Z,44.33
2019-04-11T13:14:43.153Z,45.22
2019-04-11T13:17:28.155Z,44.91
2019-04-11T13:20:17.266Z,45.44
2019-04-11T13:22:49.053Z,45.77
2019-04-11T13:25:23.823Z,43.94
2019-04-11T13:27:57.436Z,43.85
2019-04-11T13:33:16.270Z,45.54
2019-04-11T13:38:38.761Z,44.39
2019-04-11T13:41:21.288Z,44.99
2019-04-11T13:43:51.637Z,45.41
2019-04-11T13:46:28.026Z,46.48
2019-04-11T13:49:07.601Z,44.85
2019-04-11T13:51:54.467Z,45.33
2019-04-11T13:54:59.508Z,45.89
2019-04-11T14:00:44.805Z,45.56
2019-04-11T14:03:27.035Z,44.35
2019-04-11T14:06:01.190Z,44.63
2019-04-11T14:11:34.428Z,43.12
2019-04-11T14:14:19.701Z,43.04
2019-04-11T14:16:53.024Z,43.46
2019-04-11T14:19:29.208Z,45.20
2019-04-11T14:21:57.921Z,44.21
2019-04-11T14:24:41.852Z,45.55
2019-04-11T14:27:12.651Z,46.23
2019-04-11T14:29:59.300Z,47.46
2019-04-11T14:32:29.554Z,44.94
2019-04-11T14:35:02.756Z,44.79
2019-04-11T14:37:38.448Z,45.57
2019-04-11T14:40:44.935Z,45.10
2019-04-11T14:43:25.344Z,45.18
2019-04-11T14:45:55.538Z,47.46
2019-04-11T14:48:25.794Z,46.92
2019-04-11T14:51:02.086Z,47.45
2019-04-11T14:53:42.057Z,47.50
2019-04-11T14:56:14.792Z,47.27
2019-04-11T14:59:07.572Z,47.27
2019-04-11T15:01:36.179Z,49.06
2019-04-11T15:04:13.596Z,49.14
2019-04-11T15:06:45.285Z,49.40
2019-04-11T15:09:30.717Z,50.15
2019-04-11T15:12:00.967Z,50.15
2019-04-11T15:14:48.514Z,49.81
2019-04-11T15:17:18.678Z,49.06
2019-04-11T15:20:05.247Z,48.85
2019-04-11T15:22:51.691Z,49.70
2019-04-11T15:25:38.512Z,50.06
2019-04-11T15:28:12.621Z,50.06
2019-04-11T15:30:48.547Z,50.88
2019-04-11T15:33:33.287Z,51.34
2019-04-11T15:36:03.479Z,51.34
2019-04-11T15:38:50.120Z,52.74
2019-04-11T15:41:18.808Z,52.03
2019-04-11T15:44:05.474Z,51.13
2019-04-11T15:46:35.739Z,51.13
2019-04-11T15:49:20.896Z,51.04
2019-04-11T15:51:44.231Z,52.60
2019-04-11T15:54:15.507Z,53.38
2019-04-11T15:56:49.249Z,51.98
2019-04-11T15:59:36.097Z,52.52
2019-04-11T16:02:22.642Z,52.52
2019-04-11T16:04:52.888Z,51.68
2019-04-11T16:07:39.015Z,52.76
2019-04-11T16:10:11.697Z,52.76
2019-04-11T16:12:41.461Z,52.80
2019-04-11T16:15:19.497Z,52.88
2019-04-11T16:17:57.879Z,52.88
2019-04-11T16:20:26.256Z,55.68
2019-04-11T16:23:02.552Z,53.87
2019-04-11T16:25:31.277Z,52.79
2019-04-11T16:28:01.535Z,53.31
2019-04-11T16:30:31.885Z,53.31
2019-04-11T16:33:08.098Z,53.81
2019-04-11T16:35:44.910Z,53.81
2019-04-11T16:38:23.874Z,54.19
2019-04-11T16:41:09.413Z,54.19
2019-04-11T16:43:39.633Z,55.25
2019-04-11T16:46:09.883Z,55.25
2019-04-11T16:48:38.436Z,56.10
2019-04-11T16:51:07.008Z,56.10
2019-04-11T16:53:35.570Z,56.20
2019-04-11T16:56:04.346Z,56.64
2019-04-11T16:58:33.334Z,57.33
2019-04-11T17:01:01.945Z,57.33
2019-04-11T17:03:30.555Z,58.30
2019-04-11T17:06:00.799Z,58.30
2019-04-11T17:08:31.472Z,58.08
2019-04-11T17:11:04.591Z,60.17
2019-04-11T17:13:33.301Z,59.28
2019-04-11T17:16:03.132Z,59.09
2019-04-11T17:18:33.986Z,59.97
2019-04-11T17:21:02.007Z,59.97
2019-04-11T17:23:30.615Z,59.23
2019-04-11T17:25:59.224Z,59.87
2019-04-11T17:28:27.848Z,60.89
2019-04-11T17:30:56.459Z,60.84
2019-04-11T17:33:27.720Z,60.84
2019-04-11T17:35:55.517Z,60.21
2019-04-11T17:38:24.129Z,60.51
2019-04-11T17:40:52.667Z,61.00
2019-04-11T17:43:21.273Z,60.52
2019-04-11T17:45:49.857Z,60.97
2019-04-11T17:48:18.393Z,61.10
2019-04-11T17:50:47.020Z,61.98
2019-04-11T17:53:15.951Z,61.98
2019-04-11T17:55:44.662Z,62.03
2019-04-11T17:58:13.209Z,61.33
2019-04-11T18:00:45.134Z,61.78
2019-04-11T18:03:14.796Z,60.61
2019-04-11T18:05:46.629Z,61.40
2019-04-11T18:08:14.885Z,62.03
2019-04-11T18:10:43.813Z,61.73
2019-04-11T18:13:12.367Z,61.73
2019-04-11T18:15:40.934Z,61.71
2019-04-11T18:18:09.487Z,61.14
2019-04-11T18:20:38.063Z,62.16
2019-04-11T18:23:06.622Z,62.16
2019-04-11T18:25:35.365Z,61.79
2019-04-11T18:28:04.431Z,61.78
2019-04-11T18:30:33.007Z,62.70
2019-04-11T18:33:01.941Z,61.83
2019-04-11T18:35:31.927Z,62.08
2019-04-11T18:38:02.541Z,62.26
2019-04-11T18:40:31.601Z,62.51
2019-04-11T18:43:00.153Z,63.17
2019-04-11T18:45:28.785Z,63.10
2019-04-11T18:47:57.510Z,62.78
2019-04-11T18:50:28.681Z,62.83
2019-04-11T18:52:59.198Z,62.66
2019-04-11T18:55:27.236Z,62.19
2019-04-11T18:57:55.964Z,63.50
2019-04-11T19:00:25.675Z,62.83
2019-04-11T19:02:54.288Z,63.54
2019-04-11T19:05:28.711Z,62.65
2019-04-11T19:07:53.269Z,64.06
2019-04-11T19:10:21.922Z,62.92
2019-04-11T19:12:50.535Z,62.94
2019-04-11T19:15:19.171Z,64.85
2019-04-11T19:17:47.721Z,63.25
2019-04-11T19:20:18.709Z,63.38
2019-04-11T19:22:48.257Z,64.33
2019-04-11T19:25:19.612Z,63.65
2019-04-11T19:27:53.312Z,63.58
2019-04-11T19:30:18.434Z,63.19
2019-04-11T19:32:47.396Z,64.12
2019-04-11T19:35:18.744Z,63.17
2019-04-11T19:37:47.324Z,63.90
2019-04-11T19:40:17.009Z,63.06
2019-04-11T19:42:49.246Z,62.96
2019-04-11T19:45:19.457Z,64.74
2019-04-11T19:47:51.583Z,64.42
2019-04-11T19:50:18.639Z,65.18
2019-04-11T19:52:47.219Z,65.18
2019-04-11T19:55:35.288Z,64.32
2019-04-11T19:58:03.865Z,64.44
2019-04-11T20:00:32.415Z,65.02
2019-04-11T20:03:00.979Z,65.18
2019-04-11T20:05:29.853Z,65.02
2019-04-11T20:07:58.891Z,64.73
2019-04-11T20:10:30.598Z,65.29
2019-04-11T20:12:59.111Z,64.82
2019-04-11T20:15:36.696Z,65.67
2019-04-11T20:17:58.308Z,66.46
2019-04-11T20:20:27.223Z,66.43
2019-04-11T20:22:59.226Z,66.29
2019-04-11T20:25:26.534Z,65.92
2019-04-11T20:27:57.418Z,65.27
2019-04-11T20:30:26.196Z,64.72
2019-04-11T20:32:54.826Z,65.75
2019-04-11T20:35:28.773Z,66.04
2019-04-11T20:37:54.420Z,65.52
2019-04-11T20:40:23.082Z,66.03
2019-04-11T20:42:54.120Z,65.71
2019-04-11T20:45:22.806Z,66.21
2019-04-11T20:47:51.378Z,66.58
2019-04-11T20:50:19.929Z,67.20
2019-04-11T20:52:48.501Z,67.66
2019-04-11T20:55:17.059Z,67.13
2019-04-11T20:57:45.627Z,67.16
2019-04-11T21:00:16.547Z,66.56
2019-04-11T21:02:45.118Z,66.26
2019-04-11T21:05:14.786Z,67.45
2019-04-11T21:07:43.336Z,66.88
2019-04-11T21:10:12.007Z,66.85
2019-04-11T21:12:40.577Z,68.37
2019-04-11T21:15:09.466Z,67.26
2019-04-11T21:17:38.108Z,66.85
2019-04-11T21:20:07.495Z,67.76
2019-04-11T21:22:36.049Z,67.52
2019-04-11T21:25:06.242Z,68.74
2019-04-11T21:27:34.888Z,67.29
2019-04-11T21:30:04.282Z,68.20
2019-04-11T21:32:32.847Z,67.94
2019-04-11T21:35:02.452Z,69.13
2019-04-11T21:37:31.536Z,68.53
2019-04-11T21:40:00.077Z,67.51
2019-04-11T21:42:28.989Z,67.94
2019-04-11T21:44:57.540Z,68.43
2019-04-11T21:47:26.115Z,68.75
2019-04-11T21:49:54.665Z,68.79
2019-04-11T21:52:23.208Z,68.07
2019-04-11T21:54:51.783Z,68.11
2019-04-11T21:57:20.335Z,68.69
2019-04-11T21:59:51.231Z,69.14
2019-04-11T22:02:24.093Z,68.60
2019-04-11T22:04:50.382Z,68.44
2019-04-11T22:07:18.931Z,67.86
2019-04-11T22:09:47.568Z,67.89
2019-04-11T22:12:19.204Z,69.18
2019-04-11T22:14:48.092Z,68.73
2019-04-11T22:17:16.868Z,69.84
2019-04-11T22:19:48.517Z,69.71
2019-04-11T22:22:17.438Z,69.03
2019-04-11T22:24:46.071Z,68.64
2019-04-11T22:27:14.625Z,68.56
2019-04-11T22:29:43.199Z,68.55
2019-04-11T22:32:11.754Z,68.14
2019-04-11T22:34:45.066Z,69.12
2019-04-11T22:37:14.854Z,69.90
2019-04-11T22:39:43.411Z,69.35
2019-04-11T22:42:12.098Z,69.65
2019-04-11T22:44:40.682Z,69.44
2019-04-11T22:47:09.236Z,69.06
2019-04-11T22:49:39.347Z,69.56
2019-04-11T22:52:08.319Z,70.55
2019-04-11T22:54:37.038Z,70.92
2019-04-11T22:57:05.650Z,70.63
2019-04-11T22:59:34.218Z,70.96
2019-04-11T23:02:04.401Z,70.67
2019-04-11T23:04:32.977Z,71.76
2019-04-11T23:07:01.525Z,70.31
2019-04-11T23:09:30.100Z,70.71
2019-04-11T23:11:58.652Z,72.00
2019-04-11T23:14:27.230Z,71.00
2019-04-11T23:16:56.218Z,71.64
2019-04-11T23:19:24.788Z,71.82
2019-04-11T23:21:53.342Z,71.98
2019-04-11T23:24:21.913Z,71.81
2019-04-11T23:26:50.463Z,71.82
2019-04-11T23:29:19.029Z,71.97
2019-04-11T23:31:50.378Z,72.83
2019-04-11T23:34:19.770Z,72.86
2019-04-11T23:36:50.885Z,72.41
2019-04-11T23:39:18.458Z,72.72
2019-04-11T23:41:49.670Z,73.26
2019-04-11T23:44:17.994Z,72.33
2019-04-11T23:46:51.792Z,73.36
2019-04-11T23:49:18.074Z,73.51
2019-04-11T23:51:49.722Z,73.41
2019-04-11T23:54:23.000Z,73.42
2019-04-11T23:56:48.897Z,72.89
2019-04-11T23:59:17.446Z,73.44
